Matagorda, TX (77457)

2:52 PM CDT on August 31, 2015 (GMT -0500)
Selkirk Island | | Change Station
CLOSE
Current Station
Personal Weather Station
Location: Bay City, TX
Elevation: 43 ft
Nearby Weather Stations

Elev 43 ft 28.77 °N, 95.99 °W | Updated 1 minute ago

Overcast
Overcast
83.8 °F
Feels Like 91 °F
N
1.1
Wind Variable Wind from ESE

Today
High -- | Low -- °F
--% Chance of Precip.
Yesterday
High -- | Low -- °F
Precip. -- in
7:01 AM 7:46 PM
Waning Gibbous, 94% visible
Pressure 30.02 in
Visibility 10.0 miles
Clouds Clear
Heat Index 91 °F
Dew Point 74 °F
Humidity 73%
Rainfall 1.34 in
Snow Depth Not available.
UV 11 out of 12
Pollen 6.70 out of 12
Air Quality Not available.
Flu Activity Not available.
METAR KPSX 311853Z AUTO 10010KT 10SM CLR 28/23 A3002 RMK AO2 LTG DSNT SE-W RAB1756E06 SLP165 P0000 T02830228
Pressure 30.02 in
Visibility 10.0 miles
Clouds Clear
Heat Index 91 °F
Dew Point 74 °F
Humidity 73%
Rainfall 1.34 in
Snow Depth Not available.
UV 11 out of 12
Pollen 6.70 out of 12
Air Quality Not available.
Flu Activity Not available.
METAR KPSX 311853Z AUTO 10010KT 10SM CLR 28/23 A3002 RMK AO2 LTG DSNT SE-W RAB1756E06 SLP165 P0000 T02830228

10-Day Weather Forecast

×

Almanac

Astronomy

Aug. 31, 2015 Rise Set
Actual Time
Civil Twilight
Nautical Twilight
Astronomical Twilight
Moon
Length of Visible Light
Length of Day
Tomorrow will be .
, % of the Moon is Illuminated

Today's Extremes

State Highs State Lows

Community

WunderPhotos

Upload Photos

1,851,346 photos uploaded!

WunderBlogs® & News

Nearby

Air Quality

  Air Quality AQ Index Pollutant
Not available.

Snow Depth

Station Depth Elevation

Earthquake Activity

City Distance Mag. Time & Date
Minimum magnitude displayed is 2.5.

Coastal Water Temperatures

Place Temperature

Stations

Nearby Weather Stations

Station Location Temp. Windchill Dew Point Humidity Wind Precip. Elev Updated Type